Time;durP1;ratioP1;P1;durP2;ratioP2;P2;SDS_P1;SDS_P2;PMS_P1;PMS_P2;Temp;Humidity;BMP_temperature;BMP_pressure;BME280_temperature;BME280_humidity;BME280_pressure;Samples;Min_cycle;Max_cycle;Signal;HPM_P1;HPM_P2
2023/01/14 00:01:53;;;;;;;11.20;2.67;;;;;;;7.96;85.78;100333.25;10324281;28;20061;-72
2023/01/14 00:06:54;;;;;;;8.98;2.80;;;;;;;7.79;88.27;100313.16;10319947;28;20058;-75
2023/01/14 00:11:56;;;;;;;7.28;2.90;;;;;;;7.81;87.13;100326.31;10317293;28;20137;-74
2023/01/14 00:16:59;;;;;;;10.45;2.45;;;;;;;7.68;87.05;100343.03;10320522;28;20057;-74
2023/01/14 00:22:01;;;;;;;9.15;2.38;;;;;;;7.79;85.04;100331.72;10320227;28;20129;-75
2023/01/14 00:27:02;;;;;;;10.23;2.42;;;;;;;7.89;85.10;100337.25;10329871;28;20208;-73
2023/01/14 00:32:04;;;;;;;8.93;2.42;;;;;;;7.82;83.76;100346.56;10310777;28;20196;-74
2023/01/14 00:37:07;;;;;;;10.27;2.90;;;;;;;7.87;82.90;100360.38;10312436;28;20049;-74
2023/01/14 00:42:08;;;;;;;8.85;2.67;;;;;;;7.94;82.22;100359.00;10308121;28;20877;-74
2023/01/14 00:47:10;;;;;;;10.18;2.50;;;;;;;7.97;81.51;100346.41;10312426;28;20215;-73
2023/01/14 00:52:11;;;;;;;9.63;2.22;;;;;;;7.94;80.80;100345.72;10319600;28;20080;-72
2023/01/14 00:57:15;;;;;;;8.85;2.33;;;;;;;7.84;80.09;100349.97;10310908;28;20252;-72
2023/01/14 01:02:17;;;;;;;10.32;2.17;;;;;;;7.72;79.52;100341.06;10317675;28;20060;-72
2023/01/14 01:07:18;;;;;;;8.05;2.28;;;;;;;7.68;79.28;100340.41;10309158;28;20493;-75
2023/01/14 01:12:20;;;;;;;8.57;2.45;;;;;;;7.61;79.63;100352.34;10319204;28;20051;-73
2023/01/14 01:17:22;;;;;;;8.90;2.05;;;;;;;7.57;79.35;100343.78;10310801;28;20178;-72
2023/01/14 01:22:24;;;;;;;6.85;2.03;;;;;;;7.60;79.71;100359.47;10315740;28;20187;-72
2023/01/14 01:27:25;;;;;;;11.10;3.45;;;;;;;7.64;79.62;100369.84;10310150;28;20530;-72
2023/01/14 01:32:27;;;;;;;9.40;2.10;;;;;;;7.60;79.72;100363.91;10307509;28;20054;-72
2023/01/14 01:37:28;;;;;;;6.13;1.88;;;;;;;7.56;79.71;100373.84;10312384;28;20070;-72
2023/01/14 01:42:33;;;;;;;10.10;2.08;;;;;;;7.54;80.20;100374.94;10303237;28;20057;-74
2023/01/14 01:47:35;;;;;;;;;;;;;;;7.52;79.79;100375.03;10321615;28;20054;-71
2023/01/14 01:52:36;;;;;;;7.30;2.22;;;;;;;7.55;80.13;100380.13;10310644;28;20631;-71
2023/01/14 01:57:38;;;;;;;10.02;3.08;;;;;;;7.52;79.48;100387.41;10315222;28;20760;-72
2023/01/14 02:02:39;;;;;;;14.63;3.05;;;;;;;7.51;79.79;100393.66;10316936;28;20106;-71
2023/01/14 02:07:43;;;;;;;12.52;2.28;;;;;;;7.48;79.88;100412.41;10302897;28;20057;-72
2023/01/14 02:13:14;;;;;;;12.52;2.95;;;;;;;7.44;79.02;100404.63;10305853;28;20196;-72
2023/01/14 02:18:30;;;;;;;10.00;2.38;;;;;;;7.44;79.50;100399.34;10308211;28;20109;-72
2023/01/14 02:24:04;;;;;;;9.75;2.85;;;;;;;7.41;79.73;100407.47;10316699;28;20694;-73
2023/01/14 02:29:26;;;;;;;7.10;2.47;;;;;;;7.32;79.20;100407.25;10310085;28;20760;-72
2023/01/14 02:34:36;;;;;;;9.40;2.28;;;;;;;7.37;79.52;100419.25;10311479;28;20087;-72
2023/01/14 02:39:44;;;;;;;10.45;2.15;;;;;;;7.37;79.91;100408.66;10310988;28;20139;-72
2023/01/14 02:44:54;;;;;;;6.85;2.00;;;;;;;7.37;79.12;100403.34;10315833;28;20053;-72
2023/01/14 02:49:58;;;;;;;13.70;3.45;;;;;;;7.46;79.56;100388.69;10319848;28;20714;-73
2023/01/14 02:55:02;;;;;;;8.13;2.83;;;;;;;7.42;79.71;100401.25;10304394;28;20125;-73
2023/01/14 03:00:28;;;;;;;8.45;2.42;;;;;;;7.36;80.13;100396.34;10321889;28;20085;-73
2023/01/14 03:05:48;;;;;;;6.65;2.55;;;;;;;7.26;80.35;100387.31;10321710;28;20045;-72
2023/01/14 03:10:59;;;;;;;11.73;2.55;;;;;;;7.24;80.38;100391.84;10312713;28;20046;-71
2023/01/14 03:16:06;;;;;;;6.80;2.30;;;;;;;7.15;80.72;100379.22;10319370;28;20160;-71
2023/01/14 03:21:17;;;;;;;8.13;2.90;;;;;;;7.16;80.37;100375.59;10322478;28;20076;-72
2023/01/14 03:26:22;;;;;;;11.02;2.78;;;;;;;7.13;80.61;100370.50;10320990;28;20097;-72
2023/01/14 03:31:27;;;;;;;6.13;2.10;;;;;;;7.10;80.87;100370.69;10314921;28;20077;-72
2023/01/14 03:36:33;;;;;;;8.65;2.38;;;;;;;7.03;81.25;100359.66;10316782;28;20042;-72
2023/01/14 03:46:57;;;;;;;8.18;2.75;;;;;;;6.87;81.79;100349.19;10323729;28;20050;-72
2023/01/14 03:52:06;;;;;;;8.70;2.63;;;;;;;6.89;81.64;100350.81;10321343;28;20738;-72
2023/01/14 03:57:14;;;;;;;7.90;3.00;;;;;;;6.91;81.86;100361.28;10320789;28;20066;-72
2023/01/14 04:02:18;;;;;;;9.88;2.67;;;;;;;6.93;81.74;100354.09;10318337;28;20145;-72
2023/01/14 04:07:21;;;;;;;7.67;2.83;;;;;;;6.95;81.69;100341.63;10322027;28;20515;-63
2023/01/14 04:12:23;;;;;;;10.98;2.97;;;;;;;6.84;81.65;100330.88;10319827;28;20132;-74
2023/01/14 04:17:24;;;;;;;10.52;2.63;;;;;;;6.82;81.80;100325.69;10325215;28;20139;-75
2023/01/14 04:22:25;;;;;;;7.45;2.20;;;;;;;6.86;81.24;100329.84;10322053;28;20057;-74
2023/01/14 04:27:27;;;;;;;8.95;2.53;;;;;;;6.79;81.61;100325.88;10319927;28;20408;-73
2023/01/14 04:32:28;;;;;;;10.95;2.35;;;;;;;6.77;81.54;100337.50;10314476;28;20064;-73
2023/01/14 04:37:32;;;;;;;11.52;3.03;;;;;;;6.68;82.29;100323.91;10312566;28;20041;-74
2023/01/14 04:42:33;;;;;;;8.90;2.60;;;;;;;6.72;82.02;100309.56;10323538;28;20290;-73
2023/01/14 04:47:35;;;;;;;9.27;2.72;;;;;;;6.79;82.04;100303.88;10326636;28;20059;-73
2023/01/14 04:52:37;;;;;;;11.05;3.42;;;;;;;6.76;82.27;100312.00;10314927;28;20057;-72
2023/01/14 04:57:38;;;;;;;9.02;2.72;;;;;;;6.76;82.21;100317.28;10317061;28;20568;-73
2023/01/14 05:02:40;;;;;;;13.88;2.92;;;;;;;6.67;82.33;100335.44;10321927;28;20056;-72
2023/01/14 05:07:41;;;;;;;11.98;3.03;;;;;;;6.60;83.38;100336.75;10327323;28;20385;-74
2023/01/14 05:12:55;;;;;;;10.20;2.83;;;;;;;6.68;83.25;100328.34;10325550;28;20050;-72
2023/01/14 05:17:57;;;;;;;12.90;3.65;;;;;;;6.69;83.71;100322.13;10318484;28;20611;-73
2023/01/14 05:23:05;;;;;;;8.50;2.55;;;;;;;6.71;83.38;100301.69;10308493;28;20061;-73
2023/01/14 05:28:10;;;;;;;10.25;2.50;;;;;;;6.59;83.85;100292.75;10316367;28;20529;-73
2023/01/14 05:33:13;;;;;;;11.80;2.78;;;;;;;6.61;83.75;100290.03;10317305;28;20034;-71
2023/01/14 05:38:14;;;;;;;9.73;2.55;;;;;;;6.70;83.99;100284.13;10314893;28;20103;-71
2023/01/14 05:48:36;;;;;;;9.48;3.38;;;;;;;6.70;82.99;100261.16;10314516;28;20041;-72
2023/01/14 05:53:37;;;;;;;13.05;3.70;;;;;;;6.84;82.77;100264.72;10316213;28;20046;-73
2023/01/14 05:58:39;;;;;;;12.65;3.13;;;;;;;6.78;83.23;100255.38;10315550;28;20062;-72
2023/01/14 06:09:05;;;;;;;7.55;2.67;;;;;;;6.77;83.19;100252.84;10322273;28;20136;-73
2023/01/14 06:14:07;;;;;;;9.15;2.92;;;;;;;6.75;83.05;100246.81;10311511;28;20070;-73
2023/01/14 06:19:13;;;;;;;12.05;2.95;;;;;;;6.76;83.37;100241.41;10312639;28;20050;-72
2023/01/14 06:24:14;;;;;;;9.77;2.65;;;;;;;6.75;83.73;100244.16;10314385;28;20211;-73
2023/01/14 06:29:16;;;;;;;12.30;3.22;;;;;;;6.82;83.55;100240.19;10303252;28;20845;-72
2023/01/14 06:34:21;;;;;;;11.35;2.72;;;;;;;6.84;83.07;100239.09;10326110;28;20250;-74
2023/01/14 06:39:22;;;;;;;7.78;2.28;;;;;;;6.95;82.67;100235.78;10320310;28;20108;-72
2023/01/14 06:44:24;;;;;;;13.40;3.33;;;;;;;6.85;82.83;100224.94;10312626;28;20058;-73
2023/01/14 06:49:25;;;;;;;13.65;3.13;;;;;;;6.85;83.22;100218.81;10322612;28;20053;-72
2023/01/14 06:54:26;;;;;;;11.43;3.70;;;;;;;6.99;82.98;100216.06;10318375;28;20169;-71
2023/01/14 06:59:28;;;;;;;9.90;2.95;;;;;;;7.05;82.59;100199.78;10320198;28;20133;-75
2023/01/14 07:04:29;;;;;;;16.13;4.35;;;;;;;7.07;82.50;100197.03;10322077;28;20091;-74
2023/01/14 07:09:31;;;;;;;10.18;2.75;;;;;;;7.09;82.35;100195.16;10323564;28;20064;-73
2023/01/14 07:14:33;;;;;;;15.18;3.72;;;;;;;7.14;82.21;100178.97;10315757;28;20156;-70
2023/01/14 07:19:34;;;;;;;11.77;2.97;;;;;;;7.19;82.21;100163.59;10318307;28;20648;-74
2023/01/14 07:24:37;;;;;;;10.70;3.10;;;;;;;7.16;82.18;100169.97;10310318;28;20396;-73
2023/01/14 07:29:39;;;;;;;10.95;2.97;;;;;;;7.15;82.44;100165.63;10317149;28;20046;-73
2023/01/14 07:34:40;;;;;;;11.77;2.83;;;;;;;7.26;82.16;100163.06;10313207;28;20762;-72
2023/01/14 07:39:42;;;;;;;13.60;3.35;;;;;;;7.33;81.12;100150.28;10316748;28;20153;-73
2023/01/14 07:44:43;;;;;;;9.63;2.90;;;;;;;7.34;81.48;100136.09;10325201;28;20054;-73
2023/01/14 07:49:45;;;;;;;13.02;3.28;;;;;;;7.29;80.85;100126.78;10329220;28;20042;-73
2023/01/14 07:54:46;;;;;;;11.20;2.78;;;;;;;7.31;80.98;100138.97;10331504;28;20057;-72
2023/01/14 07:59:48;;;;;;;9.88;2.58;;;;;;;7.42;80.97;100133.75;10333813;28;20053;-72
2023/01/14 08:04:49;;;;;;;14.63;3.17;;;;;;;7.35;80.94;100110.47;10327240;28;20076;-67
2023/01/14 08:09:51;;;;;;;11.27;2.58;;;;;;;7.52;81.47;100133.13;10325025;28;20064;-61
2023/01/14 08:14:52;;;;;;;13.00;2.85;;;;;;;7.59;81.11;100124.63;10315766;28;20054;-64
2023/01/14 08:19:54;;;;;;;12.25;2.88;;;;;;;7.57;79.98;100120.41;10320193;28;20141;-62
2023/01/14 08:24:56;;;;;;;15.30;2.65;;;;;;;7.56;80.08;100119.53;10310229;28;20521;-71
2023/01/14 08:29:58;;;;;;;8.43;2.22;;;;;;;7.61;79.95;100111.28;10317788;28;20054;-61
2023/01/14 08:34:59;;;;;;;11.23;3.05;;;;;;;7.65;80.09;100099.50;10313197;28;20054;-62
2023/01/14 08:40:01;;;;;;;9.07;3.38;;;;;;;7.68;80.19;100095.81;10313556;28;20053;-65
2023/01/14 08:45:02;;;;;;;7.35;2.63;;;;;;;7.71;80.36;100085.81;10317657;28;20061;-75
2023/01/14 08:50:04;;;;;;;9.40;3.08;;;;;;;7.76;80.70;100067.81;10320907;28;20058;-73
2023/01/14 08:55:06;;;;;;;10.60;2.95;;;;;;;7.79;79.75;100046.38;10319550;28;20066;-74
2023/01/14 09:00:09;;;;;;;8.45;2.45;;;;;;;7.75;80.48;100041.44;10312294;28;20549;-70
2023/01/14 09:05:10;;;;;;;7.78;2.22;;;;;;;7.75;82.05;100030.81;10312144;28;20136;-68
2023/01/14 09:20:52;;;;;;;9.75;2.33;;;;;;;7.66;84.80;100021.72;10319067;28;20057;-69
2023/01/14 09:25:53;;;;;;;12.48;2.58;;;;;;;7.68;85.55;100009.22;10317648;28;20053;-69
2023/01/14 09:30:55;;;;;;;8.90;2.42;;;;;;;7.73;85.58;100004.44;10315548;28;20057;-68
2023/01/14 09:36:00;;;;;;;9.15;1.90;;;;;;;7.74;85.55;99995.50;10292015;28;20073;-71
2023/01/14 09:41:01;;;;;;;9.23;1.83;;;;;;;7.66;86.27;99981.16;10302558;28;20061;-67
2023/01/14 09:46:11;;;;;;;5.55;1.73;;;;;;;7.67;86.98;99966.94;10318004;28;20119;-66
2023/01/14 09:51:32;;;;;;;6.13;1.50;;;;;;;7.81;86.80;99957.97;10313423;28;20117;-64
2023/01/14 09:56:42;;;;;;;7.72;2.08;;;;;;;7.95;86.47;99944.56;10305412;28;20046;-63
2023/01/14 10:02:09;;;;;;;4.55;1.52;;;;;;;7.99;86.22;99945.16;10313649;28;20060;-66
2023/01/14 10:07:13;;;;;;;8.13;3.03;;;;;;;7.95;86.08;99939.25;10316403;28;20050;-65
2023/01/14 10:12:38;;;;;;;7.55;1.70;;;;;;;7.93;86.83;99922.63;10320052;28;20619;-65
2023/01/14 10:17:43;;;;;;;5.17;1.93;;;;;;;7.94;87.25;99911.03;10326965;28;20748;-66
2023/01/14 10:23:05;;;;;;;7.95;1.48;;;;;;;7.90;87.49;99899.84;10316451;28;20045;-65
2023/01/14 10:28:11;;;;;;;3.83;2.13;;;;;;;7.89;88.61;99897.31;10318459;28;20054;-64
2023/01/14 10:33:15;;;;;;;5.50;2.20;;;;;;;7.92;88.63;99892.59;10315621;28;20050;-68
2023/01/14 10:38:21;;;;;;;9.07;2.67;;;;;;;8.05;88.18;99881.09;10322206;28;20050;-67
2023/01/14 10:43:29;;;;;;;7.15;3.50;;;;;;;8.17;87.80;99866.91;10330915;28;20132;-68
2023/01/14 10:48:45;;;;;;;7.78;1.70;;;;;;;8.23;86.92;99842.56;10320166;28;20053;-66
2023/01/14 10:53:47;;;;;;;5.53;2.03;;;;;;;8.25;87.25;99834.50;10318918;28;20046;-66
2023/01/14 10:58:49;;;;;;;4.28;2.08;;;;;;;8.27;86.97;99841.38;10300937;28;20056;-67
2023/01/14 11:03:51;;;;;;;8.27;2.65;;;;;;;8.26;86.84;99807.84;10318909;28;21167;-62
2023/01/14 11:08:53;;;;;;;6.88;1.95;;;;;;;8.30;86.54;99811.09;10322271;28;20083;-67
2023/01/14 11:13:55;;;;;;;9.23;5.43;;;;;;;8.24;86.45;99808.94;10325149;28;20045;-63
2023/01/14 11:19:02;;;;;;;8.95;7.95;;;;;;;8.29;86.58;99809.44;10328398;28;20073;-68
2023/01/14 11:24:18;;;;;;;8.90;3.72;;;;;;;8.36;85.91;99789.44;10322139;28;20540;-73
2023/01/14 11:29:25;;;;;;;5.00;1.85;;;;;;;8.41;84.98;99755.44;10317569;28;20546;-65
2023/01/14 11:34:38;;;;;;;6.70;1.60;;;;;;;8.40;84.29;99735.16;10319997;28;20043;-67
2023/01/14 11:39:45;;;;;;;11.20;5.45;;;;;;;8.43;84.15;99703.09;10315485;28;20075;-65
2023/01/14 11:45:11;;;;;;;16.13;10.02;;;;;;;8.47;83.88;99685.16;10315943;28;20082;-65
2023/01/14 11:50:20;;;;;;;7.05;2.20;;;;;;;8.51;84.10;99653.91;10312763;28;20052;-65
2023/01/14 11:55:21;;;;;;;3.13;1.25;;;;;;;8.57;83.24;99648.97;10332510;28;20056;-64
2023/01/14 12:00:23;;;;;;;3.17;1.00;;;;;;;8.64;83.34;99644.00;10312901;28;20057;-62
2023/01/14 12:05:25;;;;;;;4.47;1.50;;;;;;;8.67;83.08;99617.19;10315679;28;20057;-66
2023/01/14 12:10:38;;;;;;;2.90;0.73;;;;;;;8.65;82.68;99592.63;10320370;28;20053;-64
2023/01/14 12:21:36;;;;;;;8.63;1.73;;;;;;;8.77;81.72;99554.44;10310617;28;20063;-65
2023/01/14 12:26:43;;;;;;;3.08;1.60;;;;;;;8.78;81.94;99582.66;10315240;28;20054;-65
2023/01/14 12:31:52;;;;;;;6.28;1.33;;;;;;;8.77;83.56;99558.91;10310532;28;20054;-66
2023/01/14 12:37:09;;;;;;;2.70;0.90;;;;;;;8.71;85.42;99539.03;10316351;28;20053;-68
2023/01/14 12:47:54;;;;;;;3.03;0.90;;;;;;;8.64;88.49;99527.25;10298923;28;20070;-64
2023/01/14 12:52:56;;;;;;;3.13;1.30;;;;;;;8.55;90.06;99512.94;10313955;28;21503;-65
2023/01/14 12:57:59;;;;;;;2.80;1.10;;;;;;;8.62;89.77;99505.31;10308521;28;20050;-70
2023/01/14 13:03:07;;;;;;;2.88;1.02;;;;;;;8.54;89.56;99486.53;10312710;28;20501;-70
2023/01/14 13:08:25;;;;;;;5.03;2.65;;;;;;;8.53;91.37;99471.59;10306212;28;20133;-71
2023/01/14 13:13:26;;;;;;;35.67;18.42;;;;;;;8.51;91.79;99462.94;10303473;28;20045;-68
2023/01/14 13:18:34;;;;;;;5.82;2.20;;;;;;;8.48;91.83;99454.28;10307625;28;20139;-70
2023/01/14 13:23:35;;;;;;;2.70;1.02;;;;;;;8.48;91.70;99456.06;10303582;28;20126;-71
2023/01/14 13:29:05;;;;;;;16.95;12.65;;;;;;;8.55;93.45;99448.44;10303623;28;20050;-61
2023/01/14 13:34:22;;;;;;;23.30;17.73;;;;;;;8.49;93.44;99418.81;10306836;28;20132;-71
2023/01/14 13:39:24;;;;;;;9.63;4.32;;;;;;;8.46;94.17;99412.94;10306821;28;20137;-65
2023/01/14 13:44:32;;;;;;;5.82;3.40;;;;;;;8.42;94.52;99385.81;10316438;28;20072;-69
2023/01/14 13:49:41;;;;;;;12.13;8.60;;;;;;;8.43;94.49;99373.38;10313808;28;20359;-72
2023/01/14 13:54:44;;;;;;;6.63;5.78;;;;;;;8.37;95.03;99361.47;10310069;28;20485;-68
2023/01/14 13:59:53;;;;;;;7.67;4.10;;;;;;;8.45;94.88;99363.50;10293466;28;20054;-69
2023/01/14 14:04:55;;;;;;;12.23;7.30;;;;;;;8.49;94.13;99356.97;10317151;28;20134;-71
2023/01/14 14:10:01;;;;;;;2.70;1.10;;;;;;;8.48;95.04;99342.03;10311093;28;20126;-72
2023/01/14 14:15:11;;;;;;;3.45;1.83;;;;;;;8.50;94.56;99332.13;10312570;28;20060;-70
2023/01/14 14:20:17;;;;;;;5.90;1.92;;;;;;;8.52;95.37;99324.03;10310722;28;20219;-69
2023/01/14 14:25:32;;;;;;;5.40;1.42;;;;;;;8.44;94.91;99314.94;10309696;28;20058;-70
2023/01/14 14:30:48;;;;;;;3.25;1.50;;;;;;;8.53;94.63;99312.44;10305802;28;20057;-62
2023/01/14 14:35:50;;;;;;;3.25;1.02;;;;;;;8.70;94.83;99303.84;10307153;28;20053;-71
2023/01/14 14:40:51;;;;;;;3.92;1.00;;;;;;;8.58;94.04;99275.75;10312170;28;20702;-76
2023/01/14 14:46:05;;;;;;;3.92;1.25;;;;;;;8.65;94.00;99275.09;10311195;28;20188;-72
2023/01/14 14:51:14;;;;;;;3.28;1.10;;;;;;;8.57;94.30;99266.13;10314087;28;20053;-76
2023/01/14 14:56:18;;;;;;;4.68;1.00;;;;;;;8.67;93.40;99267.00;10315463;28;20697;-59
2023/01/14 15:01:22;;;;;;;3.80;1.20;;;;;;;8.81;94.16;99252.50;10318621;28;20053;-70
2023/01/14 15:06:26;;;;;;;2.55;0.85;;;;;;;8.76;92.80;99247.59;10319262;28;20676;-72
2023/01/14 15:11:32;;;;;;;2.13;0.95;;;;;;;8.71;92.58;99238.34;10324700;28;20111;-73
2023/01/14 15:16:34;;;;;;;2.80;1.35;;;;;;;8.76;93.14;99220.22;10315453;28;20054;-74
2023/01/14 15:21:37;;;;;;;2.35;1.13;;;;;;;8.76;93.00;99217.56;10317611;28;20589;-71
2023/01/14 15:26:40;;;;;;;4.63;1.13;;;;;;;8.77;93.38;99214.78;10318378;28;20045;-72
2023/01/14 15:31:42;;;;;;;2.88;1.05;;;;;;;8.70;93.23;99208.34;10320913;28;20156;-74
2023/01/14 15:36:54;;;;;;;2.03;0.77;;;;;;;8.71;93.62;99204.72;10322401;28;20053;-70
2023/01/14 15:41:59;;;;;;;1.65;0.68;;;;;;;8.72;93.97;99190.50;10327723;28;20053;-70
2023/01/14 15:47:01;;;;;;;2.65;0.95;;;;;;;8.68;93.66;99178.47;10322788;28;20050;-68
2023/01/14 15:52:05;;;;;;;2.17;0.88;;;;;;;8.69;93.92;99169.50;10321797;28;20893;-71
2023/01/14 15:57:15;;;;;;;5.30;0.90;;;;;;;8.78;93.31;99176.66;10324108;28;22621;-69
2023/01/14 16:02:24;;;;;;;7.53;4.05;;;;;;;8.81;93.05;99162.28;10314928;28;20054;-66
2023/01/14 16:07:26;;;;;;;19.23;11.65;;;;;;;8.80;92.93;99158.78;10311978;28;20470;-70
2023/01/14 16:12:27;;;;;;;8.57;4.25;;;;;;;8.81;93.82;99136.59;10308661;28;20144;-67
2023/01/14 16:17:29;;;;;;;8.40;4.70;;;;;;;8.80;93.29;99124.28;10313793;28;20060;-68
2023/01/14 16:22:32;;;;;;;5.50;2.92;;;;;;;8.83;93.67;99124.00;10311132;28;25019;-69
2023/01/14 16:27:36;;;;;;;17.48;9.68;;;;;;;8.85;93.07;99116.72;10310298;28;20509;-69
2023/01/14 16:32:38;;;;;;;7.47;3.85;;;;;;;8.82;93.36;99121.50;10309251;28;20146;-70
2023/01/14 16:37:41;;;;;;;6.97;2.90;;;;;;;8.89;91.83;99113.78;10302952;28;20061;-70
2023/01/14 16:42:42;;;;;;;3.30;1.90;;;;;;;8.93;91.90;99115.19;10307614;28;20663;-70
2023/01/14 16:47:44;;;;;;;6.15;3.10;;;;;;;8.96;90.86;99114.91;10307934;28;20058;-69
2023/01/14 16:52:46;;;;;;;3.67;2.05;;;;;;;8.92;90.97;99100.28;10312535;28;20120;-67
2023/01/14 16:57:48;;;;;;;22.85;12.25;;;;;;;8.92;91.05;99085.19;10308219;28;20604;-73
2023/01/14 17:02:50;;;;;;;7.80;3.85;;;;;;;8.95;90.58;99089.38;10320125;28;20123;-71
2023/01/14 17:07:52;;;;;;;12.75;7.57;;;;;;;8.98;90.57;99087.25;10305701;28;20076;-72
2023/01/14 17:12:54;;;;;;;4.57;1.88;;;;;;;8.95;90.77;99078.75;10303431;28;20046;-71
2023/01/14 17:17:56;;;;;;;6.63;3.40;;;;;;;8.96;90.45;99053.88;10309378;28;20054;-71
2023/01/14 17:23:00;;;;;;;8.48;4.47;;;;;;;8.96;90.41;99044.13;10304825;28;20077;-70
2023/01/14 17:28:02;;;;;;;2.65;1.40;;;;;;;8.99;90.56;99045.63;10310917;28;20066;-70
2023/01/14 17:33:03;;;;;;;12.07;7.15;;;;;;;9.02;90.72;99058.59;10316377;28;20108;-69
2023/01/14 17:38:05;;;;;;;4.20;1.17;;;;;;;9.03;90.46;99039.06;10320686;28;20061;-71
2023/01/14 17:43:07;;;;;;;3.20;1.33;;;;;;;9.06;90.92;99028.16;10309066;28;20199;-69
2023/01/14 17:48:09;;;;;;;3.22;1.42;;;;;;;9.08;91.90;99047.41;10310605;28;20142;-71
2023/01/14 17:53:11;;;;;;;4.75;3.10;;;;;;;9.03;92.66;99034.56;10303414;28;20060;-72
2023/01/14 17:58:12;;;;;;;3.90;1.92;;;;;;;9.08;93.03;99036.78;10307415;28;20486;-71
2023/01/14 18:03:15;;;;;;;2.28;1.20;;;;;;;9.05;92.71;99030.94;10310998;28;20091;-73
2023/01/14 18:08:16;;;;;;;3.53;1.38;;;;;;;9.11;93.38;99033.88;10317979;28;20749;-74
2023/01/14 18:13:18;;;;;;;3.05;1.67;;;;;;;9.07;94.20;99013.91;10315879;28;20061;-71
2023/01/14 18:18:20;;;;;;;4.53;1.73;;;;;;;9.10;94.75;99024.22;10310804;28;20050;-72
2023/01/14 18:23:21;;;;;;;2.67;1.33;;;;;;;9.06;95.64;99014.88;10315022;28;20248;-73
2023/01/14 18:28:22;;;;;;;3.60;2.10;;;;;;;9.08;95.85;99007.59;10312494;28;20138;-73
2023/01/14 18:33:24;;;;;;;2.95;1.33;;;;;;;9.15;96.24;99011.34;10308917;28;20123;-72
2023/01/14 18:38:26;;;;;;;2.75;1.60;;;;;;;9.18;97.07;99004.91;10320909;28;20042;-71
2023/01/14 18:43:27;;;;;;;6.40;1.88;;;;;;;9.11;97.66;99004.69;10314544;28;20053;-72
2023/01/14 18:48:28;;;;;;;2.38;1.13;;;;;;;9.16;98.27;99004.25;10319855;28;20210;-72
2023/01/14 18:53:30;;;;;;;5.38;1.85;;;;;;;9.16;98.42;98983.81;10316727;28;20806;-71
2023/01/14 18:58:33;;;;;;;3.10;1.60;;;;;;;9.18;97.92;98957.97;10316643;28;20430;-69
2023/01/14 19:03:35;;;;;;;4.13;1.52;;;;;;;9.21;98.73;98967.47;10320885;28;20818;-68
2023/01/14 19:08:37;;;;;;;3.58;1.77;;;;;;;9.15;99.97;98974.19;10325119;28;20061;-74
2023/01/14 19:13:39;;;;;;;3.28;1.45;;;;;;;9.13;100.00;98973.50;10321256;28;20476;-71
2023/01/14 19:18:40;;;;;;;3.65;1.50;;;;;;;9.17;99.63;98961.63;10324754;28;20101;-70
2023/01/14 19:23:42;;;;;;;3.10;1.27;;;;;;;9.15;98.78;98936.19;10322109;28;20695;-72
2023/01/14 19:28:46;;;;;;;4.22;1.55;;;;;;;9.15;99.10;98922.91;10317598;28;21728;-71
2023/01/14 19:33:47;;;;;;;4.33;2.00;;;;;;;9.18;98.48;98928.75;10304054;28;20124;-72
2023/01/14 19:38:49;;;;;;;3.33;1.45;;;;;;;9.25;97.80;98921.06;10316264;28;20474;-70
2023/01/14 19:43:51;;;;;;;3.45;1.55;;;;;;;9.26;97.77;98911.25;10325971;28;20053;-71
2023/01/14 19:48:52;;;;;;;3.60;1.55;;;;;;;9.23;97.02;98895.63;10337559;28;20733;-72
2023/01/14 19:53:55;;;;;;;5.20;2.25;;;;;;;9.20;97.76;98904.72;10317796;28;20065;-71
2023/01/14 19:58:57;;;;;;;3.97;1.60;;;;;;;9.29;97.47;98914.47;10319371;28;20568;-73
2023/01/14 20:04:05;;;;;;;3.20;1.60;;;;;;;9.30;97.76;98900.19;10315975;28;20080;-74
2023/01/14 20:09:11;;;;;;;2.58;1.45;;;;;;;9.32;98.88;98902.69;10321874;28;20094;-73
2023/01/14 20:14:13;;;;;;;3.92;1.10;;;;;;;9.30;99.78;98889.56;10318524;28;20061;-60
2023/01/14 20:19:14;;;;;;;3.03;1.48;;;;;;;9.51;100.00;98893.78;10314426;28;20150;-61
2023/01/14 20:24:16;;;;;;;2.40;1.58;;;;;;;9.63;98.88;98889.09;10316862;28;20072;-61
2023/01/14 20:29:17;;;;;;;2.55;1.35;;;;;;;9.52;98.64;98880.34;10314982;28;20224;-74
2023/01/14 20:34:19;;;;;;;2.97;1.30;;;;;;;9.53;99.06;98871.41;10317750;28;20053;-71
2023/01/14 20:39:22;;;;;;;2.75;1.38;;;;;;;9.50;99.71;98869.06;10310554;28;20134;-73
2023/01/14 20:49:43;;;;;;;1.15;0.93;;;;;;;9.42;100.00;98863.63;10320105;28;20056;-73
2023/01/14 20:54:46;;;;;;;4.18;1.60;;;;;;;9.46;100.00;98859.69;10322614;28;20053;-73
2023/01/14 20:59:47;;;;;;;3.53;2.28;;;;;;;9.48;100.00;98848.94;10317014;28;20717;-73
2023/01/14 21:04:49;;;;;;;2.83;1.00;;;;;;;9.50;100.00;98834.50;10316695;28;20045;-73
2023/01/14 21:09:53;;;;;;;1.38;0.88;;;;;;;9.51;100.00;98830.03;10315033;28;20045;-72
2023/01/14 21:25:40;;;;;;;3.88;1.90;;;;;;;9.41;100.00;98838.06;10307847;28;20101;-72
2023/01/14 21:30:45;;;;;;;1.85;1.42;;;;;;;9.39;100.00;98826.75;10311326;28;20156;-72
2023/01/14 21:35:46;;;;;;;2.33;1.40;;;;;;;9.34;100.00;98813.94;10310269;28;20050;-70
2023/01/14 21:43:24;;;;;;;1.45;1.25;;;;;;;9.36;100.00;98805.81;10309381;28;20149;-67
2023/01/14 21:46:09;;;;;;;1.52;1.05;;;;;;;9.37;100.00;98804.84;10312679;28;20038;-72
2023/01/14 21:51:12;;;;;;;2.05;1.33;;;;;;;9.44;100.00;98808.53;10308219;28;20050;-72
2023/01/14 21:56:17;;;;;;;1.75;1.48;;;;;;;9.46;100.00;98805.75;10309100;28;20851;-71
2023/01/14 22:01:19;;;;;;;;;;;;;;;9.48;100.00;98787.84;10311839;28;20061;-73
2023/01/14 22:06:21;;;;;;;2.67;1.30;;;;;;;9.50;100.00;98776.06;10307762;28;20655;-73
2023/01/14 22:11:23;;;;;;;1.88;1.00;;;;;;;9.50;100.00;98760.13;10329623;28;20139;-73
2023/01/14 22:16:26;;;;;;;2.33;0.80;;;;;;;9.61;100.00;98774.16;10323734;28;20049;-72
2023/01/14 22:21:27;;;;;;;1.73;1.23;;;;;;;9.65;100.00;98773.72;10320696;28;20670;-71
2023/01/14 22:26:29;;;;;;;1.95;0.80;;;;;;;9.69;100.00;98751.13;10329118;28;20152;-72
2023/01/14 22:31:30;;;;;;;2.13;0.65;;;;;;;9.71;100.00;98741.22;10333474;28;20058;-72
2023/01/14 22:36:32;;;;;;;2.53;0.95;;;;;;;9.72;100.00;98742.84;10327449;28;20693;-73
2023/01/14 22:41:33;;;;;;;0.98;0.82;;;;;;;9.69;100.00;98739.69;10324385;28;20042;-73
2023/01/14 22:46:34;;;;;;;4.00;1.45;;;;;;;9.69;100.00;98732.53;10330650;28;20297;-73
2023/01/14 22:51:36;;;;;;;3.22;0.90;;;;;;;9.69;100.00;98727.22;10327846;28;20053;-73
2023/01/14 22:56:38;;;;;;;2.05;0.80;;;;;;;9.70;100.00;98717.44;10326523;28;20045;-72
2023/01/14 23:01:39;;;;;;;1.08;0.65;;;;;;;9.72;100.00;98705.66;10326306;28;20050;-72
2023/01/14 23:06:41;;;;;;;1.95;1.08;;;;;;;9.73;100.00;98691.38;10322330;28;20053;-72
2023/01/14 23:11:42;;;;;;;3.03;0.93;;;;;;;9.72;100.00;98680.91;10322954;28;20096;-71
2023/01/14 23:27:24;;;;;;;1.45;0.93;;;;;;;9.73;100.00;98653.38;10318917;28;20049;-72
2023/01/14 23:32:25;;;;;;;1.35;0.80;;;;;;;9.70;100.00;98637.75;10323209;28;20050;-73
2023/01/14 23:37:27;;;;;;;4.78;1.35;;;;;;;9.69;100.00;98618.28;10321504;28;20548;-72
2023/01/14 23:42:30;;;;;;;1.48;0.90;;;;;;;9.67;100.00;98619.47;10325208;28;20042;-72
2023/01/14 23:47:43;;;;;;;1.60;0.90;;;;;;;9.62;100.00;98616.44;10318297;28;20483;-71
2023/01/14 23:52:44;;;;;;;0.90;0.73;;;;;;;9.60;100.00;98594.50;10326319;28;20157;-71
2023/01/14 23:57:46;;;;;;;2.13;1.05;;;;;;;9.62;100.00;98587.19;10320848;28;20141;-72
